createdAt,value
2023-04-27T00:01:44.823Z,9.39
2023-04-27T00:04:14.429Z,9.43
2023-04-27T00:06:42.864Z,9.43
2023-04-27T00:09:10.273Z,9.44
2023-04-27T00:11:38.025Z,9.44
2023-04-27T00:14:05.761Z,9.44
2023-04-27T00:16:33.244Z,9.52
2023-04-27T00:19:01.009Z,9.58
2023-04-27T00:21:28.528Z,9.58
2023-04-27T00:23:56.513Z,9.62
2023-04-27T00:26:24.255Z,9.61
2023-04-27T00:28:51.884Z,9.72
2023-04-27T00:31:19.285Z,9.76
2023-04-27T00:33:46.976Z,9.70
2023-04-27T00:36:16.696Z,9.72
2023-04-27T00:38:44.148Z,9.76
2023-04-27T00:41:11.877Z,9.70
2023-04-27T00:43:44.331Z,9.64
2023-04-27T00:46:13.314Z,9.61
2023-04-27T00:48:41.893Z,9.54
2023-04-27T00:51:10.601Z,9.43
2023-04-27T00:53:38.798Z,9.37
2023-04-27T00:56:07.118Z,9.32
2023-04-27T00:58:34.773Z,9.16
2023-04-27T01:01:03.776Z,9.08
2023-04-27T01:03:31.588Z,9.03
2023-04-27T01:06:01.800Z,8.95
2023-04-27T01:08:29.877Z,9.01
2023-04-27T01:10:57.520Z,9.04
2023-04-27T01:13:25.013Z,8.99
2023-04-27T01:15:52.730Z,8.97
2023-04-27T01:18:20.102Z,8.79
2023-04-27T01:20:47.913Z,8.71
2023-04-27T01:23:17.346Z,8.75
2023-04-27T01:25:45.064Z,8.56
2023-04-27T01:28:12.792Z,8.61
2023-04-27T01:30:40.563Z,8.61
2023-04-27T01:33:08.003Z,8.66
2023-04-27T01:35:35.515Z,8.65
2023-04-27T01:38:03.290Z,8.61
2023-04-27T01:40:30.828Z,8.69
2023-04-27T01:42:58.277Z,8.60
2023-04-27T01:45:26.205Z,8.66
2023-04-27T01:47:53.854Z,8.60
2023-04-27T01:50:21.581Z,8.36
2023-04-27T01:52:49.367Z,8.52
2023-04-27T01:55:16.886Z,8.50
2023-04-27T01:57:44.362Z,8.44
2023-04-27T02:00:12.804Z,8.42
2023-04-27T02:02:48.054Z,8.40
2023-04-27T02:05:15.908Z,8.38
2023-04-27T02:07:43.314Z,8.27
2023-04-27T02:10:10.992Z,8.13
2023-04-27T02:12:38.624Z,8.06
2023-04-27T02:15:08.691Z,8.11
2023-04-27T02:17:36.490Z,8.08
2023-04-27T02:20:06.767Z,8.25
2023-04-27T02:22:34.237Z,8.23
2023-04-27T02:25:03.027Z,8.15
2023-04-27T02:27:30.535Z,7.95
2023-04-27T02:29:58.574Z,7.99
2023-04-27T02:32:27.192Z,8.01
2023-04-27T02:34:55.384Z,8.01
2023-04-27T02:37:22.914Z,8.06
2023-04-27T02:39:50.635Z,7.95
2023-04-27T02:42:18.495Z,8.15
2023-04-27T02:44:46.193Z,8.11
2023-04-27T02:47:14.026Z,8.04
2023-04-27T02:49:43.604Z,8.03
2023-04-27T02:52:11.016Z,8.02
2023-04-27T02:54:39.345Z,8.06
2023-04-27T02:57:07.150Z,7.88
2023-04-27T02:59:34.591Z,7.84
2023-04-27T03:02:02.022Z,7.90
2023-04-27T03:04:30.028Z,7.95
2023-04-27T03:06:57.444Z,7.93
2023-04-27T03:09:25.146Z,7.80
2023-04-27T03:11:52.879Z,7.77
2023-04-27T03:14:21.263Z,7.73
2023-04-27T03:16:48.959Z,7.77
2023-04-27T03:19:16.667Z,7.71
2023-04-27T03:21:44.409Z,7.65
2023-04-27T03:24:11.766Z,7.72
2023-04-27T03:26:39.457Z,7.68
2023-04-27T03:29:06.887Z,7.61
2023-04-27T03:31:34.532Z,7.41
2023-04-27T03:34:02.303Z,7.57
2023-04-27T03:36:30.047Z,7.54
2023-04-27T03:38:57.540Z,7.38
2023-04-27T03:41:25.681Z,7.53
2023-04-27T03:43:53.540Z,7.66
2023-04-27T03:46:21.295Z,7.61
2023-04-27T03:48:49.409Z,7.50
2023-04-27T03:51:18.296Z,7.71
2023-04-27T03:53:46.388Z,7.71
2023-04-27T03:56:14.430Z,7.64
2023-04-27T03:58:41.999Z,7.65
2023-04-27T04:01:11.592Z,7.65
2023-04-27T04:03:39.475Z,7.74
2023-04-27T04:06:07.324Z,7.85
2023-04-27T04:08:34.834Z,7.79
2023-04-27T04:11:02.735Z,7.70
2023-04-27T04:13:30.336Z,7.81
2023-04-27T04:16:05.022Z,7.93
2023-04-27T04:18:33.826Z,7.95
2023-04-27T04:21:02.216Z,8.09
2023-04-27T04:23:29.669Z,8.02
2023-04-27T04:25:58.146Z,8.15
2023-04-27T04:28:25.848Z,8.10
2023-04-27T04:30:53.318Z,8.26
2023-04-27T04:33:21.474Z,8.11
2023-04-27T04:35:49.442Z,8.34
2023-04-27T04:38:16.879Z,8.26
2023-04-27T04:40:45.967Z,8.42
2023-04-27T04:43:13.691Z,8.50
2023-04-27T04:45:42.738Z,8.47
2023-04-27T04:48:14.638Z,8.63
2023-04-27T04:50:42.201Z,8.67
2023-04-27T04:53:09.999Z,8.66
2023-04-27T04:55:37.568Z,8.73
2023-04-27T04:58:05.291Z,8.73
2023-04-27T05:00:32.949Z,8.74
2023-04-27T05:03:01.665Z,8.85
2023-04-27T05:05:29.230Z,8.90
2023-04-27T05:07:57.041Z,9.15
2023-04-27T05:10:24.505Z,9.01
2023-04-27T05:12:51.894Z,9.06
2023-04-27T05:15:19.917Z,9.18
2023-04-27T05:17:47.322Z,9.29
2023-04-27T05:20:15.873Z,9.46
2023-04-27T05:22:43.790Z,9.58
2023-04-27T05:25:11.368Z,9.92
2023-04-27T05:27:38.726Z,9.83
2023-04-27T05:30:07.905Z,9.88
2023-04-27T05:32:37.408Z,9.85
2023-04-27T05:35:05.621Z,10.10
2023-04-27T05:37:33.325Z,10.20
2023-04-27T05:40:00.786Z,10.54
2023-04-27T05:42:28.205Z,10.54
2023-04-27T05:44:56.027Z,10.96
2023-04-27T05:47:23.721Z,11.08
2023-04-27T05:49:54.499Z,10.95
2023-04-27T05:52:22.318Z,11.36
2023-04-27T05:54:50.820Z,11.39
2023-04-27T05:57:18.491Z,11.66
2023-04-27T05:59:46.261Z,11.87
2023-04-27T06:02:13.746Z,12.00
2023-04-27T06:04:41.483Z,12.15
2023-04-27T06:07:10.391Z,12.10
2023-04-27T06:09:38.360Z,12.35
2023-04-27T06:12:07.244Z,12.38
2023-04-27T06:14:37.225Z,12.14
2023-04-27T06:17:04.909Z,12.46
2023-04-27T06:19:32.616Z,12.56
2023-04-27T06:21:59.991Z,12.63
2023-04-27T06:24:28.609Z,12.72
2023-04-27T06:26:56.953Z,12.98
2023-04-27T06:29:24.350Z,13.36
2023-04-27T06:31:51.872Z,13.73
2023-04-27T06:34:19.817Z,14.00
2023-04-27T06:36:47.252Z,14.04
2023-04-27T06:39:14.889Z,14.17
2023-04-27T06:41:42.782Z,14.47
2023-04-27T06:44:13.146Z,14.87
2023-04-27T06:46:40.554Z,15.13
2023-04-27T06:49:08.286Z,15.27
2023-04-27T06:51:35.770Z,15.45
2023-04-27T06:54:03.865Z,15.69
2023-04-27T06:56:31.730Z,15.85
2023-04-27T06:58:59.541Z,15.78
2023-04-27T07:01:26.990Z,16.08
2023-04-27T07:03:54.960Z,16.17
2023-04-27T07:06:22.745Z,16.26
2023-04-27T07:08:50.098Z,16.74
2023-04-27T07:11:17.902Z,17.05
2023-04-27T07:13:45.554Z,16.97
2023-04-27T07:16:13.277Z,16.91
2023-04-27T07:18:43.185Z,17.22
2023-04-27T07:21:11.399Z,17.51
2023-04-27T07:23:40.842Z,17.48
2023-04-27T07:26:09.737Z,17.70
2023-04-27T07:28:38.215Z,17.73
2023-04-27T07:31:06.363Z,17.65
2023-04-27T07:33:34.587Z,17.62
2023-04-27T07:36:02.699Z,17.69
2023-04-27T07:38:31.214Z,17.87
2023-04-27T07:41:01.776Z,17.79
2023-04-27T07:43:29.783Z,17.85
2023-04-27T07:45:58.419Z,17.62
2023-04-27T07:48:26.360Z,17.12
2023-04-27T07:50:53.887Z,17.16
2023-04-27T07:53:21.339Z,17.01
2023-04-27T07:55:49.006Z,17.03
2023-04-27T07:58:16.444Z,17.08
2023-04-27T08:00:43.946Z,17.13
2023-04-27T08:03:11.895Z,16.92
2023-04-27T08:05:39.839Z,16.80
2023-04-27T08:08:08.052Z,16.59
2023-04-27T08:10:37.113Z,16.90
2023-04-27T08:13:04.491Z,16.88
2023-04-27T08:15:32.009Z,16.72
2023-04-27T08:17:59.868Z,16.55
2023-04-27T08:20:30.747Z,16.38
2023-04-27T08:22:58.228Z,16.14
2023-04-27T08:25:26.357Z,16.04
2023-04-27T08:27:53.778Z,16.07
2023-04-27T08:30:21.292Z,15.95
2023-04-27T08:32:49.664Z,15.73
2023-04-27T08:35:17.706Z,15.72
2023-04-27T08:37:45.137Z,15.61
2023-04-27T08:40:13.388Z,15.44
2023-04-27T08:42:52.464Z,15.79
2023-04-27T08:45:24.418Z,15.90
2023-04-27T08:47:52.430Z,16.31
2023-04-27T08:50:21.490Z,16.32
2023-04-27T08:52:50.734Z,16.66
2023-04-27T08:55:18.166Z,17.06
2023-04-27T08:57:58.673Z,17.18
2023-04-27T09:00:26.869Z,17.47
2023-04-27T09:02:54.873Z,17.67
2023-04-27T09:05:23.762Z,17.73
2023-04-27T09:08:05.449Z,17.89
2023-04-27T09:10:52.460Z,18.15
2023-04-27T09:13:19.913Z,17.81
2023-04-27T09:15:52.243Z,17.82
2023-04-27T09:18:23.526Z,17.74
2023-04-27T09:20:52.346Z,17.86
2023-04-27T09:23:26.428Z,17.99
2023-04-27T09:25:56.515Z,18.05
2023-04-27T09:28:26.086Z,18.16
2023-04-27T09:30:55.714Z,17.94
2023-04-27T09:33:27.727Z,18.09
2023-04-27T09:35:57.205Z,17.76
2023-04-27T09:38:24.771Z,17.58
2023-04-27T09:40:53.579Z,17.68
2023-04-27T09:43:22.001Z,17.82
2023-04-27T09:45:50.222Z,17.47
2023-04-27T09:48:18.550Z,17.08
2023-04-27T09:50:46.858Z,16.99
2023-04-27T09:53:18.748Z,16.72
2023-04-27T09:55:50.548Z,16.78
2023-04-27T09:58:45.237Z,16.59
2023-04-27T10:01:42.616Z,16.81
2023-04-27T10:05:04.865Z,16.96
2023-04-27T10:07:33.188Z,17.16
2023-04-27T10:10:02.695Z,17.42
2023-04-27T10:12:36.607Z,17.66
2023-04-27T10:15:15.374Z,17.90
2023-04-27T10:17:50.316Z,18.05
2023-04-27T10:20:29.071Z,18.19
2023-04-27T10:22:56.675Z,18.37
2023-04-27T10:25:40.762Z,18.37
2023-04-27T10:28:09.496Z,18.43
2023-04-27T10:30:39.279Z,18.60
2023-04-27T10:33:11.850Z,18.84
2023-04-27T10:35:41.099Z,19.14
2023-04-27T10:38:19.220Z,19.03
2023-04-27T10:40:55.981Z,18.42
2023-04-27T10:43:28.754Z,18.41
2023-04-27T10:46:11.749Z,18.35
2023-04-27T10:48:39.834Z,18.14
2023-04-27T10:51:07.699Z,18.39
2023-04-27T10:53:37.318Z,18.56
2023-04-27T10:56:06.992Z,18.75
2023-04-27T10:58:48.107Z,18.80
2023-04-27T11:01:26.951Z,18.52
2023-04-27T11:03:58.982Z,18.10
2023-04-27T11:06:28.127Z,18.17
2023-04-27T11:08:56.622Z,18.53
2023-04-27T11:11:24.319Z,18.79
2023-04-27T11:13:55.792Z,18.73
2023-04-27T11:16:24.050Z,18.23
2023-04-27T11:18:51.551Z,18.19
2023-04-27T11:21:20.565Z,18.32
2023-04-27T11:23:48.264Z,18.61
2023-04-27T11:26:20.089Z,18.72
2023-04-27T11:28:59.772Z,18.68
2023-04-27T11:31:28.271Z,18.32
2023-04-27T11:33:56.266Z,18.55
2023-04-27T11:36:24.396Z,18.18
2023-04-27T11:38:57.854Z,18.27
2023-04-27T11:41:36.234Z,18.39
2023-04-27T11:44:08.364Z,18.36
2023-04-27T11:46:36.866Z,18.09
2023-04-27T11:49:05.593Z,18.28
2023-04-27T11:51:33.535Z,17.76
2023-04-27T11:54:05.996Z,17.74
2023-04-27T11:56:41.480Z,17.53
2023-04-27T11:59:27.613Z,17.82
2023-04-27T12:01:55.043Z,17.67
2023-04-27T12:04:23.001Z,17.82
2023-04-27T12:06:51.110Z,17.64
2023-04-27T12:09:22.567Z,18.10
2023-04-27T12:11:50.324Z,17.86
2023-04-27T12:14:19.859Z,17.90
2023-04-27T12:16:47.340Z,18.02
2023-04-27T12:19:15.065Z,18.42
2023-04-27T12:21:42.785Z,18.31
2023-04-27T12:24:10.449Z,18.11
2023-04-27T12:26:38.563Z,18.34
2023-04-27T12:29:07.224Z,18.39
2023-04-27T12:31:34.782Z,18.12
2023-04-27T12:34:02.529Z,18.30
2023-04-27T12:36:29.972Z,18.29
2023-04-27T12:39:13.708Z,18.05
2023-04-27T12:41:43.512Z,18.28
2023-04-27T12:44:12.902Z,18.28
2023-04-27T12:46:41.627Z,18.16
2023-04-27T12:49:09.992Z,18.05
2023-04-27T12:51:37.627Z,18.10
2023-04-27T12:54:06.599Z,17.56
2023-04-27T12:56:34.140Z,17.73
2023-04-27T12:59:01.647Z,17.76
2023-04-27T13:01:30.274Z,17.88
2023-04-27T13:04:07.280Z,17.93
2023-04-27T13:06:35.141Z,17.95
2023-04-27T13:09:02.776Z,18.25
2023-04-27T13:11:30.251Z,18.22
2023-04-27T13:13:59.027Z,17.93
2023-04-27T13:16:26.542Z,17.92
2023-04-27T13:18:55.459Z,18.16
2023-04-27T13:21:23.316Z,18.21
2023-04-27T13:23:53.620Z,18.22
2023-04-27T13:26:21.170Z,18.05
2023-04-27T13:28:49.782Z,18.31
2023-04-27T13:31:17.311Z,18.22
2023-04-27T13:33:45.151Z,18.27
2023-04-27T13:36:13.424Z,18.33
2023-04-27T13:38:41.083Z,18.46
2023-04-27T13:41:08.765Z,18.27
2023-04-27T13:43:36.562Z,18.44
2023-04-27T13:46:03.983Z,18.39
2023-04-27T13:48:31.968Z,18.60
2023-04-27T13:50:59.660Z,18.70
2023-04-27T13:53:27.267Z,18.44
2023-04-27T13:55:56.016Z,18.13
2023-04-27T13:58:26.109Z,17.92
2023-04-27T14:00:54.152Z,18.32
2023-04-27T14:03:22.849Z,18.25
2023-04-27T14:05:53.573Z,18.18
2023-04-27T14:08:21.729Z,18.32
2023-04-27T14:10:49.647Z,18.39
2023-04-27T14:13:18.401Z,18.34
2023-04-27T14:15:46.747Z,18.25
2023-04-27T14:18:14.521Z,18.38
2023-04-27T14:20:42.337Z,18.33
2023-04-27T14:23:10.830Z,18.19
2023-04-27T14:25:39.188Z,18.00
2023-04-27T14:28:06.730Z,17.89
2023-04-27T14:30:35.434Z,18.03
2023-04-27T14:33:03.389Z,18.07
2023-04-27T14:35:34.105Z,17.98
2023-04-27T14:38:04.377Z,18.00
2023-04-27T14:40:32.459Z,17.95
2023-04-27T14:42:59.868Z,18.06
2023-04-27T14:45:33.565Z,18.06
2023-04-27T14:48:07.781Z,18.15
2023-04-27T14:50:36.006Z,17.97
2023-04-27T14:53:03.445Z,17.92
2023-04-27T14:55:31.528Z,17.91
2023-04-27T14:57:58.895Z,17.89
2023-04-27T15:00:26.368Z,17.89
2023-04-27T15:02:54.945Z,17.93
2023-04-27T15:05:22.693Z,18.12
2023-04-27T15:07:50.447Z,18.23
2023-04-27T15:10:18.276Z,18.30
2023-04-27T15:12:45.984Z,18.20
2023-04-27T15:15:13.543Z,18.10
2023-04-27T15:17:41.742Z,17.83
2023-04-27T15:20:10.741Z,17.73
2023-04-27T15:22:38.179Z,17.85
2023-04-27T15:25:06.293Z,17.88
2023-04-27T15:27:33.740Z,17.38
2023-04-27T15:30:03.772Z,17.27
2023-04-27T15:32:31.900Z,17.23
2023-04-27T15:34:59.503Z,17.37
2023-04-27T15:37:28.178Z,17.41
2023-04-27T15:39:56.222Z,17.30
2023-04-27T15:42:24.285Z,17.29
2023-04-27T15:44:51.898Z,16.94
2023-04-27T15:47:19.647Z,17.04
2023-04-27T15:49:56.982Z,17.19
2023-04-27T15:52:26.962Z,17.21
2023-04-27T15:54:54.997Z,17.32
2023-04-27T15:57:22.463Z,17.28
2023-04-27T15:59:50.181Z,17.32
2023-04-27T16:02:18.405Z,17.10
2023-04-27T16:04:46.154Z,17.21
2023-04-27T16:07:13.562Z,16.73
2023-04-27T16:09:41.116Z,16.99
2023-04-27T16:12:08.883Z,16.59
2023-04-27T16:14:36.300Z,16.79
2023-04-27T16:17:03.938Z,16.79
2023-04-27T16:19:31.733Z,16.93
2023-04-27T16:22:01.240Z,16.87
2023-04-27T16:24:29.584Z,16.72
2023-04-27T16:26:57.587Z,16.83
2023-04-27T16:29:25.045Z,16.65
2023-04-27T16:31:53.330Z,16.59
2023-04-27T16:34:21.114Z,16.70
2023-04-27T16:36:49.831Z,16.59
2023-04-27T16:39:19.231Z,16.44
2023-04-27T16:41:47.946Z,16.20
2023-04-27T16:44:15.798Z,16.39
2023-04-27T16:46:43.395Z,16.42
2023-04-27T16:49:11.204Z,16.39
2023-04-27T16:51:38.679Z,16.46
2023-04-27T16:54:06.078Z,16.50
2023-04-27T16:56:35.442Z,16.68
2023-04-27T16:59:04.937Z,16.83
2023-04-27T17:01:32.455Z,16.78
2023-04-27T17:04:02.295Z,16.62
2023-04-27T17:06:30.250Z,16.33
2023-04-27T17:08:58.048Z,16.39
2023-04-27T17:11:26.462Z,16.31
2023-04-27T17:13:54.338Z,16.29
2023-04-27T17:16:22.079Z,16.35
2023-04-27T17:18:50.005Z,16.28
2023-04-27T17:21:17.536Z,16.25
2023-04-27T17:23:50.528Z,16.38
2023-04-27T17:26:21.317Z,16.40
2023-04-27T17:28:49.274Z,16.44
2023-04-27T17:31:17.683Z,16.39
2023-04-27T17:33:45.857Z,16.31
2023-04-27T17:36:14.914Z,16.18
2023-04-27T17:38:42.440Z,16.16
2023-04-27T17:41:10.219Z,15.95
2023-04-27T17:43:38.058Z,15.91
2023-04-27T17:46:09.792Z,15.96
2023-04-27T17:48:37.928Z,16.01
2023-04-27T17:51:05.445Z,16.03
2023-04-27T17:53:33.152Z,16.00
2023-04-27T17:56:00.851Z,15.94
2023-04-27T17:58:28.256Z,15.90
2023-04-27T18:00:55.714Z,15.86
2023-04-27T18:03:23.715Z,15.90
2023-04-27T18:05:51.640Z,15.80
2023-04-27T18:08:19.058Z,15.72
2023-04-27T18:10:46.790Z,15.59
2023-04-27T18:13:14.165Z,15.30
2023-04-27T18:15:41.721Z,15.28
2023-04-27T18:18:10.938Z,15.30
2023-04-27T18:20:38.479Z,15.31
2023-04-27T18:23:06.033Z,15.27
2023-04-27T18:25:33.856Z,15.13
2023-04-27T18:28:01.564Z,15.07
2023-04-27T18:30:30.918Z,14.85
2023-04-27T18:32:58.679Z,14.88
2023-04-27T18:35:26.142Z,14.76
2023-04-27T18:37:53.544Z,14.70
2023-04-27T18:40:22.419Z,14.48
2023-04-27T18:42:53.553Z,14.43
2023-04-27T18:45:21.594Z,14.42
2023-04-27T18:47:49.077Z,14.35
2023-04-27T18:50:17.428Z,14.23
2023-04-27T18:52:45.614Z,14.17
2023-04-27T18:55:14.216Z,14.26
2023-04-27T18:57:41.886Z,14.05
2023-04-27T19:00:11.804Z,14.08
2023-04-27T19:02:39.638Z,13.96
2023-04-27T19:05:12.868Z,13.90
2023-04-27T19:07:41.261Z,13.87
2023-04-27T19:10:09.352Z,13.78
2023-04-27T19:12:36.796Z,13.54
2023-04-27T19:15:04.882Z,13.44
2023-04-27T19:17:32.536Z,13.27
2023-04-27T19:20:00.015Z,13.24
2023-04-27T19:22:29.277Z,13.31
2023-04-27T19:24:56.710Z,13.24
2023-04-27T19:27:24.383Z,13.11
2023-04-27T19:29:54.510Z,13.02
2023-04-27T19:32:25.137Z,13.03
2023-04-27T19:34:56.525Z,12.88
2023-04-27T19:37:25.050Z,12.82
2023-04-27T19:39:53.339Z,12.76
2023-04-27T19:42:20.880Z,12.46
2023-04-27T19:44:48.328Z,12.48
2023-04-27T19:47:16.179Z,12.53
2023-04-27T19:49:43.685Z,12.52
2023-04-27T19:52:11.327Z,12.06
2023-04-27T19:55:00.292Z,12.43
2023-04-27T19:57:28.881Z,12.57
2023-04-27T19:59:57.139Z,12.57
2023-04-27T20:02:24.999Z,12.50
2023-04-27T20:04:52.968Z,12.48
2023-04-27T20:07:21.039Z,12.44
2023-04-27T20:09:48.514Z,12.45
2023-04-27T20:12:35.253Z,12.27
2023-04-27T20:15:05.306Z,12.12
2023-04-27T20:17:33.307Z,12.04
2023-04-27T20:20:01.274Z,11.93
2023-04-27T20:22:28.701Z,11.96
2023-04-27T20:24:59.169Z,11.97
2023-04-27T20:27:26.735Z,11.94
2023-04-27T20:29:54.151Z,11.99
2023-04-27T20:32:21.930Z,11.96
2023-04-27T20:34:49.353Z,11.82
2023-04-27T20:37:19.571Z,11.81
2023-04-27T20:39:47.538Z,11.61
2023-04-27T20:42:14.986Z,11.59
2023-04-27T20:44:42.469Z,11.67
2023-04-27T20:47:10.162Z,11.54
2023-04-27T20:49:37.602Z,11.45
2023-04-27T20:52:05.082Z,11.53
2023-04-27T20:54:32.978Z,11.45
2023-04-27T20:57:08.425Z,11.19
2023-04-27T20:59:36.262Z,11.21
2023-04-27T21:02:03.756Z,11.19
2023-04-27T21:04:31.301Z,11.11
2023-04-27T21:06:59.177Z,11.02
2023-04-27T21:09:26.584Z,11.08
2023-04-27T21:11:54.221Z,11.19
2023-04-27T21:14:21.995Z,11.06
2023-04-27T21:16:49.588Z,10.94
2023-04-27T21:19:17.564Z,10.98
2023-04-27T21:21:45.325Z,10.93
2023-04-27T21:24:12.792Z,10.76
2023-04-27T21:26:40.255Z,10.85
2023-04-27T21:29:08.389Z,10.82
2023-04-27T21:31:36.228Z,10.96
2023-04-27T21:34:03.935Z,10.79
2023-04-27T21:36:32.412Z,10.72
2023-04-27T21:38:59.815Z,10.73
2023-04-27T21:41:27.569Z,10.74
2023-04-27T21:43:55.434Z,10.71
2023-04-27T21:46:24.038Z,10.71
2023-04-27T21:48:51.638Z,10.69
2023-04-27T21:51:19.468Z,10.66
2023-04-27T21:53:47.093Z,10.65
2023-04-27T21:56:14.568Z,10.44
2023-04-27T21:58:42.277Z,10.50
2023-04-27T22:01:11.189Z,10.53
2023-04-27T22:03:39.341Z,10.60
2023-04-27T22:06:07.541Z,10.49
2023-04-27T22:08:35.316Z,10.54
2023-04-27T22:11:03.038Z,10.47
2023-04-27T22:13:30.585Z,10.48
2023-04-27T22:15:58.095Z,10.46
2023-04-27T22:18:25.905Z,10.48
2023-04-27T22:20:54.901Z,10.38
2023-04-27T22:23:22.298Z,10.48
2023-04-27T22:25:49.964Z,10.37
2023-04-27T22:28:17.430Z,10.24
2023-04-27T22:30:44.864Z,10.30
2023-04-27T22:33:24.723Z,10.37
2023-04-27T22:35:52.098Z,10.28
2023-04-27T22:38:19.773Z,10.18
2023-04-27T22:40:47.286Z,10.24
2023-04-27T22:43:14.806Z,10.06
2023-04-27T22:45:42.522Z,10.06
2023-04-27T22:48:10.078Z,10.12
2023-04-27T22:50:37.800Z,10.18
2023-04-27T22:53:05.497Z,10.15
2023-04-27T22:55:32.877Z,10.08
2023-04-27T22:58:00.540Z,10.00
2023-04-27T23:00:28.287Z,9.78
2023-04-27T23:02:55.921Z,9.75
2023-04-27T23:05:23.687Z,9.72
2023-04-27T23:07:51.772Z,9.74
2023-04-27T23:10:19.371Z,9.76
2023-04-27T23:12:56.961Z,9.71
2023-04-27T23:15:24.658Z,9.68
2023-04-27T23:17:52.097Z,9.60
2023-04-27T23:20:27.916Z,9.60
2023-04-27T23:22:57.036Z,9.60
2023-04-27T23:25:24.588Z,9.61
2023-04-27T23:27:52.902Z,9.53
2023-04-27T23:30:22.030Z,9.50
2023-04-27T23:32:49.505Z,9.54
2023-04-27T23:35:16.952Z,9.53
2023-04-27T23:37:44.950Z,9.45
2023-04-27T23:40:12.815Z,9.54
2023-04-27T23:42:40.212Z,9.58
2023-04-27T23:45:08.443Z,9.37
2023-04-27T23:47:35.896Z,9.52
2023-04-27T23:50:03.910Z,9.44
2023-04-27T23:52:32.110Z,9.35
2023-04-27T23:54:59.654Z,9.37
2023-04-27T23:57:27.039Z,9.39
2023-04-27T23:59:54.696Z,9.26
